Time;durP1;ratioP1;P1;durP2;ratioP2;P2;SDS_P1;SDS_P2;PMS_P1;PMS_P2;Temp;Humidity;BMP_temperature;BMP_pressure;BME280_temperature;BME280_humidity;BME280_pressure;Samples;Min_cycle;Max_cycle;Signal;HPM_P1;HPM_P2
2022/04/14 00:00:55;;;;;;;6.30;2.35;;;;;;;12.31;85.54;100573.25;5074366;28;20367;-76
2022/04/14 00:03:20;;;;;;;6.32;2.30;;;;;;;12.29;85.98;100574.50;5074322;28;20473;-76
2022/04/14 00:05:46;;;;;;;5.53;2.23;;;;;;;12.27;86.17;100573.88;5074036;28;20115;-76
2022/04/14 00:08:11;;;;;;;6.20;3.03;;;;;;;12.26;85.95;100572.22;5074201;28;20287;-76
2022/04/14 00:10:36;;;;;;;7.45;3.13;;;;;;;12.25;86.12;100575.97;5074219;28;20529;-76
2022/04/14 00:13:02;;;;;;;7.00;3.30;;;;;;;12.24;86.78;100574.31;5074113;28;20035;-76
2022/04/14 00:15:28;;;;;;;7.10;2.90;;;;;;;12.22;86.96;100576.38;5073792;28;20444;-76
2022/04/14 00:17:54;;;;;;;8.00;3.30;;;;;;;12.18;87.14;100576.00;5074366;28;20378;-76
2022/04/14 00:20:19;;;;;;;6.88;3.20;;;;;;;12.13;87.38;100576.63;5074078;28;20067;-76
2022/04/14 00:22:44;;;;;;;6.17;2.67;;;;;;;12.37;87.65;100566.16;5073982;28;20035;-76
2022/04/14 00:25:11;;;;;;;7.80;2.70;;;;;;;12.43;87.59;100568.84;5056007;28;20320;-76
2022/04/14 00:27:37;;;;;;;6.65;2.85;;;;;;;12.33;87.42;100573.03;5073862;28;20365;-76
2022/04/14 00:30:03;;;;;;;6.43;3.20;;;;;;;12.47;88.12;100570.06;5055836;28;20111;-76
2022/04/14 00:32:31;;;;;;;5.63;2.70;;;;;;;12.37;87.71;100563.44;5074063;28;20367;-76
2022/04/14 00:34:56;;;;;;;8.23;3.30;;;;;;;12.34;87.93;100553.91;5073540;28;20501;-76
2022/04/14 00:37:21;;;;;;;6.97;2.80;;;;;;;12.37;88.39;100552.63;5073763;28;20052;-76
2022/04/14 00:39:47;;;;;;;7.27;3.00;;;;;;;12.44;88.94;100546.19;5073464;28;20054;-76
2022/04/14 00:42:13;;;;;;;9.27;3.08;;;;;;;12.38;89.24;100536.22;5073725;28;20032;-76
2022/04/14 00:44:39;;;;;;;9.55;4.35;;;;;;;12.37;88.76;100548.06;5073350;28;20044;-76
2022/04/14 00:47:06;;;;;;;10.70;4.28;;;;;;;12.34;89.56;100537.72;5073243;28;20489;-76
2022/04/14 00:49:31;;;;;;;10.55;3.33;;;;;;;12.30;89.85;100541.03;5073491;28;20041;-76
2022/04/14 00:52:00;;;;;;;7.65;3.47;;;;;;;12.42;89.69;100533.91;5073532;28;20025;-76
2022/04/14 00:54:25;;;;;;;9.82;4.07;;;;;;;12.23;89.17;100545.63;5073329;28;20525;-76
2022/04/14 00:56:51;;;;;;;9.75;4.50;;;;;;;12.25;89.23;100546.25;5055492;28;20040;-76
2022/04/14 00:59:16;;;;;;;10.40;3.70;;;;;;;12.34;89.86;100547.69;5073449;28;20036;-76
2022/04/14 01:01:42;;;;;;;11.10;4.13;;;;;;;12.47;88.98;100555.75;5073808;28;20090;-76
2022/04/14 01:04:10;;;;;;;12.63;4.45;;;;;;;12.34;88.81;100553.09;5073410;28;20043;-76
2022/04/14 01:06:38;;;;;;;12.38;5.13;;;;;;;12.27;88.54;100554.97;5055324;28;20113;-76
2022/04/14 01:09:16;;;;;;;11.18;4.70;;;;;;;12.29;89.22;100563.69;5073257;28;20068;-76
2022/04/14 01:11:43;;;;;;;9.27;3.75;;;;;;;12.25;88.74;100566.00;5073360;28;20024;-76
2022/04/14 01:14:19;;;;;;;13.38;5.05;;;;;;;12.40;89.06;100555.75;5073187;28;20109;-76
2022/04/14 01:16:44;;;;;;;13.30;5.57;;;;;;;12.38;89.25;100555.13;5073310;28;20120;-76
2022/04/14 01:19:09;;;;;;;12.10;5.07;;;;;;;12.40;89.15;100546.81;5073079;28;20059;-76
2022/04/14 01:21:35;;;;;;;13.47;5.43;;;;;;;12.26;89.23;100546.03;5055261;28;20378;-76
2022/04/14 01:24:02;;;;;;;11.32;4.85;;;;;;;12.22;89.33;100541.25;5072975;28;20077;-76
2022/04/14 01:26:27;;;;;;;10.15;4.47;;;;;;;12.21;89.85;100534.19;5073194;28;20032;-76
2022/04/14 01:28:52;;;;;;;12.40;5.43;;;;;;;12.26;90.82;100540.63;5073149;28;20035;-76
2022/04/14 01:31:18;;;;;;;12.70;4.70;;;;;;;12.26;90.72;100542.50;5072923;28;20031;-77
2022/04/14 01:33:43;;;;;;;14.15;6.30;;;;;;;12.22;90.51;100539.38;5073392;28;20044;-76
2022/04/14 01:36:08;;;;;;;12.43;5.53;;;;;;;12.12;90.77;100544.41;5073380;28;20039;-76
2022/04/14 01:38:34;;;;;;;10.47;4.97;;;;;;;12.06;91.16;100551.50;5072798;28;20040;-76
2022/04/14 01:40:59;;;;;;;16.20;6.35;;;;;;;12.05;91.28;100555.22;5073388;28;20575;-76
2022/04/14 01:43:25;;;;;;;12.05;5.63;;;;;;;11.96;92.02;100553.81;5073429;28;20037;-76
2022/04/14 01:45:51;;;;;;;15.67;6.60;;;;;;;11.97;91.58;100557.34;5055031;28;20029;-76
2022/04/14 01:48:17;;;;;;;13.80;5.45;;;;;;;11.93;91.79;100551.53;5072632;28;20363;-77
2022/04/14 01:50:42;;;;;;;16.33;6.30;;;;;;;11.88;92.84;100545.91;5072557;28;20202;-76
2022/04/14 01:53:08;;;;;;;13.60;6.03;;;;;;;11.93;93.23;100535.31;5073217;28;20044;-76
2022/04/14 01:55:33;;;;;;;17.77;6.40;;;;;;;12.05;92.25;100546.28;5073259;28;20058;-77
2022/04/14 01:57:58;;;;;;;13.47;5.57;;;;;;;12.12;92.63;100542.56;5073245;28;20386;-76
2022/04/14 02:00:24;;;;;;;13.90;6.77;;;;;;;12.07;92.78;100536.94;5072700;28;20263;-76
2022/04/14 02:02:49;;;;;;;13.85;5.93;;;;;;;12.09;92.66;100531.34;5072835;28;20032;-76
2022/04/14 02:05:14;;;;;;;12.47;6.23;;;;;;;12.05;92.70;100539.03;5072864;28;20041;-76
2022/04/14 02:07:40;;;;;;;16.37;6.30;;;;;;;12.18;92.17;100545.47;5072732;28;20290;-76
2022/04/14 02:10:05;;;;;;;12.63;4.83;;;;;;;12.16;92.77;100554.59;5072952;28;20029;-75
2022/04/14 02:12:32;;;;;;;14.32;6.60;;;;;;;12.02;93.19;100542.16;5072681;28;20394;-76
2022/04/14 02:14:58;;;;;;;16.95;5.65;;;;;;;11.96;93.87;100544.88;5072497;28;20099;-75
2022/04/14 02:17:23;;;;;;;14.00;5.57;;;;;;;11.99;93.61;100556.09;5072845;28;20063;-76
2022/04/14 02:19:48;;;;;;;14.20;5.47;;;;;;;12.00;93.24;100538.03;5054847;28;20112;-76
2022/04/14 02:22:15;;;;;;;15.55;6.30;;;;;;;11.90;93.66;100540.31;5074073;28;20051;-76
2022/04/14 02:24:40;;;;;;;15.02;6.78;;;;;;;11.94;92.96;100552.34;5076367;28;20048;-76
2022/04/14 02:27:06;;;;;;;13.13;5.87;;;;;;;11.85;93.45;100561.69;5076522;28;20025;-76
2022/04/14 02:29:31;;;;;;;15.07;6.07;;;;;;;11.75;93.35;100556.72;5076679;28;20411;-76
2022/04/14 02:31:57;;;;;;;12.93;5.47;;;;;;;11.64;94.68;100551.97;5076049;28;20112;-76
2022/04/14 02:34:26;;;;;;;14.05;5.30;;;;;;;11.80;94.41;100546.16;5076131;28;20668;-76
2022/04/14 02:36:52;;;;;;;18.70;6.82;;;;;;;11.76;93.82;100544.91;5076326;28;20036;-76
2022/04/14 02:39:17;;;;;;;16.17;5.80;;;;;;;11.74;93.68;100547.78;5075824;28;20029;-76
2022/04/14 02:41:42;;;;;;;15.33;6.37;;;;;;;11.80;93.42;100556.97;5075723;28;20068;-76
2022/04/14 02:44:08;;;;;;;14.20;5.10;;;;;;;11.87;93.24;100551.53;5075839;28;20547;-76
2022/04/14 02:46:33;;;;;;;13.70;5.60;;;;;;;11.88;93.54;100532.41;5075551;28;20251;-76
2022/04/14 02:48:58;;;;;;;12.63;5.40;;;;;;;11.88;93.25;100532.41;5075898;28;20379;-76
2022/04/14 02:51:24;;;;;;;16.93;6.20;;;;;;;11.88;93.65;100537.00;5075634;28;20107;-76
2022/04/14 02:53:49;;;;;;;13.27;5.47;;;;;;;11.77;94.21;100543.88;5057983;28;20302;-76
2022/04/14 02:56:14;;;;;;;16.63;6.70;;;;;;;11.68;93.95;100547.78;5075766;28;20035;-76
2022/04/14 02:58:41;;;;;;;14.67;5.80;;;;;;;11.69;93.77;100554.84;5057832;28;20244;-76
2022/04/14 03:01:06;;;;;;;17.70;6.40;;;;;;;11.64;93.75;100541.16;5075449;28;20082;-76
2022/04/14 03:03:31;;;;;;;14.63;5.83;;;;;;;11.51;94.14;100543.84;5057644;28;20518;-76
2022/04/14 03:05:56;;;;;;;17.10;7.07;;;;;;;11.46;95.03;100536.41;5075624;28;20021;-76
2022/04/14 03:08:22;;;;;;;15.37;6.13;;;;;;;11.57;95.00;100524.97;5075371;28;20032;-77
2022/04/14 03:10:47;;;;;;;17.30;5.53;;;;;;;11.73;94.52;100535.31;5075374;28;20116;-77
2022/04/14 03:13:12;;;;;;;14.33;5.53;;;;;;;11.71;94.29;100545.50;5075204;28;20391;-77
2022/04/14 03:15:38;;;;;;;17.37;6.33;;;;;;;11.67;94.39;100543.41;5075761;28;20070;-77
2022/04/14 03:18:03;;;;;;;17.07;6.93;;;;;;;11.71;94.33;100544.66;5057571;28;20055;-77
2022/04/14 03:20:29;;;;;;;18.58;6.75;;;;;;;11.79;93.98;100541.78;5077655;28;20024;-77
2022/04/14 03:22:55;;;;;;;17.13;6.40;;;;;;;11.78;93.46;100529.34;5080153;28;20024;-76
2022/04/14 03:25:21;;;;;;;17.75;7.05;;;;;;;11.73;93.68;100539.88;5076089;28;20033;-76
2022/04/14 03:27:46;;;;;;;19.50;7.17;;;;;;;11.69;93.53;100542.16;5057904;28;20033;-76
2022/04/14 03:30:12;;;;;;;14.20;6.33;;;;;;;11.66;94.03;100544.47;5075198;28;20255;-75
2022/04/14 03:32:45;;;;;;;19.20;7.05;;;;;;;11.59;94.04;100546.34;5075355;28;20029;-76
2022/04/14 03:35:12;;;;;;;19.00;7.18;;;;;;;11.49;94.93;100544.88;5074817;28;20104;-76
2022/04/14 03:37:38;;;;;;;16.40;6.65;;;;;;;11.45;94.61;100535.56;5075237;28;20072;-75
2022/04/14 03:40:05;;;;;;;19.60;7.45;;;;;;;11.43;94.71;100536.81;5075343;28;20028;-75
2022/04/14 03:42:30;;;;;;;21.63;8.18;;;;;;;11.42;95.29;100535.97;5074930;28;20035;-76
2022/04/14 03:44:56;;;;;;;19.48;7.70;;;;;;;11.43;94.86;100532.25;5074966;28;20463;-75
2022/04/14 03:47:21;;;;;;;20.77;8.02;;;;;;;11.47;94.89;100532.63;5074380;28;20039;-75
2022/04/14 03:49:46;;;;;;;25.75;8.98;;;;;;;11.46;94.84;100541.78;5074788;28;20036;-75
2022/04/14 03:52:12;;;;;;;23.95;8.70;;;;;;;11.56;94.20;100544.88;5074402;28;20067;-75
2022/04/14 03:54:37;;;;;;;20.38;7.93;;;;;;;11.63;93.51;100544.91;5074978;28;20033;-75
2022/04/14 03:57:03;;;;;;;21.40;9.13;;;;;;;11.69;92.40;100538.63;5074353;28;20036;-75
2022/04/14 03:59:28;;;;;;;22.75;8.63;;;;;;;11.58;93.70;100532.03;5074658;28;20356;-74
2022/04/14 04:01:53;;;;;;;17.93;8.10;;;;;;;11.71;94.57;100536.56;5074234;28;20035;-74
2022/04/14 04:04:19;;;;;;;20.58;8.55;;;;;;;11.70;93.18;100535.75;5074439;28;20035;-74
2022/04/14 04:06:45;;;;;;;19.98;7.97;;;;;;;11.64;93.23;100547.38;5074449;28;20037;-75
2022/04/14 04:09:11;;;;;;;20.38;8.73;;;;;;;11.67;93.26;100548.81;5074281;28;20032;-75
2022/04/14 04:11:36;;;;;;;17.88;8.43;;;;;;;11.68;92.74;100545.09;5074122;28;20482;-74
2022/04/14 04:14:02;;;;;;;22.23;9.57;;;;;;;11.65;92.78;100532.00;5074026;28;20032;-74
2022/04/14 04:16:27;;;;;;;18.67;8.70;;;;;;;11.64;92.81;100538.47;5074184;28;20090;-74
2022/04/14 04:18:52;;;;;;;17.57;8.20;;;;;;;11.63;93.12;100544.91;5073891;28;20040;-74
2022/04/14 04:21:17;;;;;;;20.20;9.00;;;;;;;11.64;93.50;100552.78;5056029;28;20430;-75
2022/04/14 04:23:43;;;;;;;19.10;9.13;;;;;;;11.64;93.22;100562.75;5074258;28;20047;-75
2022/04/14 04:26:08;;;;;;;18.77;10.00;;;;;;;11.66;93.50;100568.75;5073973;28;20028;-74
2022/04/14 04:28:33;;;;;;;20.47;9.10;;;;;;;11.67;93.65;100565.84;5073437;28;20052;-75
2022/04/14 04:30:59;;;;;;;22.07;9.63;;;;;;;11.67;93.79;100570.41;5073742;28;20406;-75
2022/04/14 04:33:24;;;;;;;22.33;9.48;;;;;;;11.70;93.76;100575.41;5073388;28;20333;-75
2022/04/14 04:35:50;;;;;;;23.65;10.32;;;;;;;11.72;93.83;100578.72;5073520;28;20135;-75
2022/04/14 04:38:15;;;;;;;22.27;9.10;;;;;;;11.73;93.38;100574.97;5073164;28;20062;-75
2022/04/14 04:40:41;;;;;;;23.20;9.60;;;;;;;11.72;93.62;100576.84;5073363;28;20089;-75
2022/04/14 04:43:06;;;;;;;22.30;8.90;;;;;;;11.87;93.67;100576.66;5073396;28;20051;-75
2022/04/14 04:45:31;;;;;;;22.50;9.35;;;;;;;11.80;93.74;100579.38;5055023;28;20629;-75
2022/04/14 04:47:57;;;;;;;20.88;9.07;;;;;;;11.78;93.85;100586.84;5073606;28;20039;-75
2022/04/14 04:50:22;;;;;;;22.40;10.43;;;;;;;11.79;93.47;100585.81;5073191;28;20037;-74
2022/04/14 04:52:47;;;;;;;18.83;8.50;;;;;;;11.76;93.39;100588.09;5072958;28;20270;-75
2022/04/14 04:55:13;;;;;;;21.80;9.53;;;;;;;11.68;92.98;100594.50;5073221;28;20115;-75
2022/04/14 04:57:38;;;;;;;20.83;8.93;;;;;;;11.65;92.97;100597.59;5073022;28;20029;-74
2022/04/14 05:00:04;;;;;;;21.10;9.13;;;;;;;11.61;93.51;100600.94;5073298;28;20029;-75
2022/04/14 05:02:29;;;;;;;22.35;9.43;;;;;;;11.60;93.33;100592.03;5055015;28;20259;-75
2022/04/14 05:04:55;;;;;;;20.57;9.10;;;;;;;11.65;93.38;100596.78;5054904;28;20467;-75
2022/04/14 05:07:20;;;;;;;23.63;10.00;;;;;;;11.61;92.92;100600.94;5072927;28;20025;-75
2022/04/14 05:09:45;;;;;;;23.13;9.40;;;;;;;11.56;92.91;100598.88;5073007;28;20415;-75
2022/04/14 05:12:11;;;;;;;29.17;9.93;;;;;;;11.53;93.58;100611.94;5073118;28;20025;-74
2022/04/14 05:14:36;;;;;;;22.40;9.02;;;;;;;11.49;93.52;100612.34;5072344;28;20090;-75
2022/04/14 05:17:01;;;;;;;23.08;9.90;;;;;;;11.46;93.63;100611.94;5072600;28;20033;-75
2022/04/14 05:19:27;;;;;;;22.23;9.65;;;;;;;11.42;94.09;100619.63;5072900;28;20075;-75
2022/04/14 05:21:52;;;;;;;23.47;9.63;;;;;;;11.45;94.09;100624.59;5072664;28;20043;-75
2022/04/14 05:24:17;;;;;;;23.73;10.03;;;;;;;11.45;93.84;100621.06;5072848;28;20364;-74
2022/04/14 05:26:42;;;;;;;22.03;9.57;;;;;;;11.49;93.88;100627.69;5072895;28;20035;-75
2022/04/14 05:29:09;;;;;;;30.33;12.77;;;;;;;11.48;94.03;100626.88;5072525;28;20672;-75
2022/04/14 05:31:35;;;;;;;27.08;10.73;;;;;;;11.48;94.15;100628.72;5072963;28;20478;-75
2022/04/14 05:34:00;;;;;;;23.65;10.82;;;;;;;11.48;93.95;100629.56;5072656;28;20024;-75
2022/04/14 05:36:25;;;;;;;25.30;9.43;;;;;;;11.59;93.83;100630.00;5072764;28;20383;-75
2022/04/14 05:38:50;;;;;;;25.40;10.27;;;;;;;11.65;92.94;100630.00;5072571;28;20363;-74
2022/04/14 05:41:16;;;;;;;21.30;9.50;;;;;;;11.65;93.12;100635.38;5072276;28;20262;-75
2022/04/14 05:43:41;;;;;;;27.67;10.77;;;;;;;11.63;93.66;100637.50;5072453;28;20104;-75
2022/04/14 05:46:07;;;;;;;24.35;9.95;;;;;;;11.58;93.80;100639.13;5072417;28;20255;-75
2022/04/14 05:48:32;;;;;;;24.45;10.10;;;;;;;11.52;93.76;100627.28;5072572;28;20101;-75
2022/04/14 05:50:57;;;;;;;28.67;11.67;;;;;;;11.47;94.13;100638.69;5072365;28;20028;-75
2022/04/14 05:53:25;;;;;;;26.00;10.53;;;;;;;11.50;94.04;100637.47;5072660;28;20654;-75
2022/04/14 05:55:51;;;;;;;24.35;10.07;;;;;;;11.51;94.76;100632.88;5054556;28;20032;-75
2022/04/14 05:58:16;;;;;;;23.90;9.40;;;;;;;11.55;94.52;100639.53;5075442;28;20528;-75
2022/04/14 06:00:42;;;;;;;20.83;9.45;;;;;;;11.51;93.90;100644.53;5076152;28;20020;-75
2022/04/14 06:03:07;;;;;;;26.08;10.02;;;;;;;11.72;93.66;100649.72;5076136;28;20036;-75
2022/04/14 06:05:33;;;;;;;28.00;10.77;;;;;;;11.71;93.42;100655.34;5076465;28;20043;-75
2022/04/14 06:07:59;;;;;;;;;;;;;;;11.77;92.87;100654.56;5076142;28;20021;-75
2022/04/14 06:10:25;;;;;;;24.15;9.68;;;;;;;11.78;92.07;100648.13;5076189;28;19912;-75
2022/04/14 06:12:51;;;;;;;27.58;10.40;;;;;;;11.83;92.27;100649.13;5075572;28;20052;-75
2022/04/14 06:15:17;;;;;;;25.33;9.88;;;;;;;11.86;92.84;100649.75;5075309;28;20044;-75
2022/04/14 06:17:44;;;;;;;27.92;10.65;;;;;;;11.80;92.86;100660.38;5057515;28;20046;-75
2022/04/14 06:20:11;;;;;;;23.25;9.77;;;;;;;11.93;91.34;100651.44;5075258;28;20028;-75
2022/04/14 06:22:40;;;;;;;23.85;10.02;;;;;;;11.96;91.51;100642.09;5075733;28;20031;-74
2022/04/14 06:25:12;;;;;;;24.75;9.85;;;;;;;11.94;91.27;100650.41;5057511;28;20404;-75
2022/04/14 06:27:40;;;;;;;27.23;10.77;;;;;;;11.97;91.30;100641.06;5074970;28;20489;-75
2022/04/14 06:30:08;;;;;;;25.27;10.35;;;;;;;11.99;91.46;100645.22;5075242;28;20028;-75
2022/04/14 06:32:34;;;;;;;25.25;10.07;;;;;;;12.13;90.40;100646.84;5075448;28;20109;-75
2022/04/14 06:34:59;;;;;;;23.92;9.52;;;;;;;12.13;90.49;100646.84;5074702;28;20087;-75
2022/04/14 06:37:25;;;;;;;21.80;10.38;;;;;;;12.21;89.99;100644.97;5074709;28;20074;-75
2022/04/14 06:39:50;;;;;;;24.92;10.13;;;;;;;12.26;89.59;100651.41;5075575;28;20025;-75
2022/04/14 06:42:15;;;;;;;25.90;10.77;;;;;;;12.24;89.35;100645.38;5075573;28;20078;-75
2022/04/14 06:44:40;;;;;;;21.45;10.18;;;;;;;12.33;89.13;100652.25;5075229;28;20058;-75
2022/04/14 06:47:06;;;;;;;22.53;9.73;;;;;;;12.40;89.03;100652.19;5075114;28;20094;-74
2022/04/14 06:49:32;;;;;;;20.38;9.32;;;;;;;12.41;88.34;100653.88;5075002;28;20028;-75
2022/04/14 06:51:57;;;;;;;22.38;9.45;;;;;;;12.38;88.51;100651.59;5074963;28;20040;-75
2022/04/14 06:54:23;;;;;;;20.43;9.63;;;;;;;12.45;88.54;100653.25;5057273;28;20033;-75
2022/04/14 06:56:48;;;;;;;26.98;10.93;;;;;;;12.47;88.64;100661.13;5075060;28;20044;-75
2022/04/14 06:59:13;;;;;;;21.98;10.27;;;;;;;12.54;88.00;100661.13;5075412;28;20143;-75
2022/04/14 07:01:39;;;;;;;26.67;9.67;;;;;;;12.60;88.48;100660.25;5074904;28;20131;-75
2022/04/14 07:04:06;;;;;;;;;;;;;;;12.71;87.97;100663.16;5057509;28;20375;-75
2022/04/14 07:06:31;;;;;;;23.80;10.18;;;;;;;12.77;87.77;100662.28;5074637;28;20401;-75
2022/04/14 07:08:56;;;;;;;24.95;10.00;;;;;;;12.84;87.05;100663.13;5056405;28;20056;-74
2022/04/14 07:11:22;;;;;;;31.47;12.50;;;;;;;12.84;87.53;100656.88;5075405;28;20032;-75
2022/04/14 07:13:47;;;;;;;25.67;10.93;;;;;;;12.90;87.47;100661.41;5074726;28;20294;-75
2022/04/14 07:16:12;;;;;;;;;;;;;;;13.00;86.81;100663.66;5075687;28;20080;-75
2022/04/14 07:18:38;;;;;;;26.48;11.95;;;;;;;12.92;86.80;100669.31;5075072;28;20316;-75
2022/04/14 07:21:05;;;;;;;27.83;11.75;;;;;;;12.97;86.40;100670.34;5074316;28;20083;-76
2022/04/14 07:23:31;;;;;;;24.98;10.32;;;;;;;13.05;86.12;100669.28;5056529;28;20036;-76
2022/04/14 07:25:56;;;;;;;32.45;12.35;;;;;;;13.10;86.43;100672.13;5074807;28;20316;-76
2022/04/14 07:28:21;;;;;;;25.17;11.23;;;;;;;13.20;85.54;100672.56;5074620;28;20032;-76
2022/04/14 07:30:47;;;;;;;26.15;11.50;;;;;;;13.24;85.26;100668.38;5074058;28;20040;-75
2022/04/14 07:33:12;;;;;;;29.00;11.53;;;;;;;13.26;84.72;100674.38;5074398;28;20032;-76
2022/04/14 07:35:37;;;;;;;;;;;;;;;13.38;84.26;100675.38;5074692;28;20394;-76
2022/04/14 07:38:03;;;;;;;26.35;10.40;;;;;;;13.34;84.46;100676.84;5074082;28;19952;-77
2022/04/14 07:40:28;;;;;;;26.20;11.65;;;;;;;13.26;85.40;100684.38;5074304;28;20387;-75
2022/04/14 07:42:55;;;;;;;;;;;;;;;13.34;84.39;100689.53;5074926;28;20066;-76
2022/04/14 07:45:20;;;;;;;26.17;10.88;;;;;;;13.34;84.66;100682.25;5074728;28;19914;-74
2022/04/14 07:47:46;;;;;;;26.53;9.87;;;;;;;13.32;84.54;100683.53;5074354;28;20021;-75
2022/04/14 07:50:13;;;;;;;26.42;9.23;;;;;;;13.39;84.18;100685.16;5074381;28;20729;-75
2022/04/14 07:52:45;;;;;;;23.95;10.30;;;;;;;13.55;84.16;100681.09;5073740;28;20044;-75
2022/04/14 07:55:10;;;;;;;27.88;11.40;;;;;;;13.52;83.14;100679.66;5056256;28;20368;-75
2022/04/14 07:57:35;;;;;;;21.75;9.65;;;;;;;13.57;82.29;100680.88;5074033;28;20082;-75
2022/04/14 08:00:00;;;;;;;;;;;;;;;13.71;82.43;100679.75;5056170;28;20090;-75
2022/04/14 08:02:26;;;;;;;22.70;9.23;;;;;;;13.68;81.61;100682.88;5055597;28;19959;-75
2022/04/14 08:04:51;;;;;;;;;;;;;;;13.84;81.58;100685.88;5074473;28;20120;-75
2022/04/14 08:07:17;;;;;;;28.27;11.35;;;;;;;13.79;81.65;100685.69;5073526;28;19969;-75
2022/04/14 08:09:42;;;;;;;;;;;;;;;13.99;81.53;100680.13;5074217;28;20181;-75
2022/04/14 08:12:08;;;;;;;25.97;9.53;;;;;;;14.05;81.34;100679.25;5073575;28;19939;-75
2022/04/14 08:14:33;;;;;;;;;;;;;;;14.08;81.15;100681.53;5056162;28;20048;-76
2022/04/14 08:17:04;;;;;;;25.80;11.68;;;;;;;14.31;80.68;100680.09;5055713;28;20248;-76
2022/04/14 08:19:29;;;;;;;24.20;11.48;;;;;;;14.36;79.83;100681.06;5072686;28;20070;-75
2022/04/14 08:21:55;;;;;;;24.50;11.05;;;;;;;14.57;79.80;100682.56;5073596;28;20044;-75
2022/04/14 08:24:20;;;;;;;25.60;10.82;;;;;;;14.83;79.18;100681.44;5073743;28;20036;-74
2022/04/14 08:26:45;;;;;;;;;;;;;;;14.97;78.64;100680.22;5056245;28;20120;-75
2022/04/14 08:29:11;;;;;;;24.95;10.75;;;;;;;15.05;78.02;100676.38;5073698;28;20287;-76
2022/04/14 08:31:39;;;;;;;26.05;11.98;;;;;;;15.01;78.66;100684.16;5073913;28;20028;-75
2022/04/14 08:34:05;;;;;;;32.65;13.68;;;;;;;14.97;79.05;100682.13;5073602;28;20103;-76
2022/04/14 08:36:30;;;;;;;32.97;13.50;;;;;;;14.88;78.55;100698.69;5055672;28;20067;-76
2022/04/14 08:38:57;;;;;;;28.13;12.52;;;;;;;14.96;78.69;100688.59;5073253;28;20399;-76
2022/04/14 08:41:28;;;;;;;27.73;13.95;;;;;;;15.40;77.38;100687.41;5073306;28;20031;-75
2022/04/14 08:44:02;;;;;;;30.38;13.63;;;;;;;14.91;78.26;100698.22;5072991;28;20063;-76
2022/04/14 08:46:28;;;;;;;30.38;14.60;;;;;;;14.93;78.57;100688.00;5055617;28;20482;-75
2022/04/14 08:48:59;;;;;;;30.98;15.05;;;;;;;15.03;77.49;100689.34;5055244;28;20038;-76
2022/04/14 08:51:33;;;;;;;35.35;15.23;;;;;;;14.80;77.48;100692.75;5073446;28;20063;-76
2022/04/14 08:53:58;;;;;;;28.20;13.40;;;;;;;14.83;78.11;100690.41;5073564;28;20120;-76
2022/04/14 08:56:24;;;;;;;27.98;14.48;;;;;;;14.84;77.12;100694.78;5072794;28;20036;-75
2022/04/14 08:58:51;;;;;;;;;;;;;;;14.74;77.34;100686.31;5055040;28;20032;-75
2022/04/14 09:01:17;;;;;;;26.88;13.20;;;;;;;14.79;78.54;100688.38;5054683;28;19908;-75
2022/04/14 09:03:42;;;;;;;27.15;13.13;;;;;;;15.25;75.77;100687.78;5054977;28;20124;-75
2022/04/14 09:06:09;;;;;;;26.23;11.65;;;;;;;15.33;73.89;100681.22;5072578;28;20048;-75
2022/04/14 09:08:34;;;;;;;25.05;12.48;;;;;;;15.48;72.89;100682.47;5072739;28;20044;-76
2022/04/14 09:11:01;;;;;;;24.00;11.47;;;;;;;15.68;73.91;100692.25;5072534;28;20379;-76
2022/04/14 09:13:27;;;;;;;25.13;12.23;;;;;;;15.94;72.59;100678.28;5072461;28;20570;-76
2022/04/14 09:15:52;;;;;;;27.02;11.90;;;;;;;15.94;72.14;100678.28;5072433;28;20045;-75
2022/04/14 09:18:18;;;;;;;;;;;;;;;15.96;72.62;100684.28;5073111;28;20444;-76
2022/04/14 09:20:48;;;;;;;23.80;11.77;;;;;;;16.10;71.08;100679.47;5072868;28;19916;-75
2022/04/14 09:23:25;;;;;;;25.05;10.55;;;;;;;15.83;69.56;100676.34;5073282;28;20116;-75
2022/04/14 09:26:11;;;;;;;25.63;11.52;;;;;;;15.85;70.81;100674.22;5073124;28;20032;-75
2022/04/14 09:28:37;;;;;;;20.40;10.20;;;;;;;16.14;71.25;100675.19;5072404;28;20450;-75
2022/04/14 09:31:04;;;;;;;;;;;;;;;16.09;71.08;100678.63;5074236;28;20056;-76
2022/04/14 09:33:31;;;;;;;24.65;11.23;;;;;;;16.01;70.71;100676.25;5076876;28;19916;-75
2022/04/14 09:36:06;;;;;;;19.70;9.95;;;;;;;15.92;66.11;100675.78;5076349;28;20025;-76
2022/04/14 09:38:56;;;;;;;22.67;10.15;;;;;;;15.96;67.18;100673.41;5076288;28;20383;-75
2022/04/14 09:41:41;;;;;;;22.00;11.10;;;;;;;16.05;68.69;100666.56;5076646;28;20128;-75
2022/04/14 09:44:08;;;;;;;22.75;11.60;;;;;;;15.85;69.90;100671.50;5079444;28;20313;-75
2022/04/14 09:46:37;;;;;;;22.65;11.40;;;;;;;15.88;69.16;100677.31;5077030;28;20040;-76
2022/04/14 09:49:13;;;;;;;22.70;10.82;;;;;;;15.87;69.16;100672.94;5058783;28;20024;-75
2022/04/14 09:51:41;;;;;;;19.83;10.55;;;;;;;16.07;67.48;100671.78;5076389;28;20121;-76
2022/04/14 09:54:12;;;;;;;21.45;10.95;;;;;;;16.13;67.16;100674.38;5058854;28;20032;-76
2022/04/14 09:56:57;;;;;;;22.77;10.07;;;;;;;16.13;66.66;100660.78;5058417;28;20036;-75
2022/04/14 09:59:25;;;;;;;22.65;11.20;;;;;;;16.06;66.88;100661.97;5075985;28;20376;-75
2022/04/14 10:02:26;;;;;;;21.90;10.82;;;;;;;15.95;66.61;100661.69;5076065;28;20086;-75
2022/04/14 10:04:52;;;;;;;20.15;9.57;;;;;;;16.06;66.47;100660.06;4978025;28;20041;-75
2022/04/14 10:07:18;;;;;;;;;;;;;;;16.35;65.96;100661.03;5041782;28;20040;-75
2022/04/14 10:09:48;;;;;;;24.40;10.95;;;;;;;16.56;65.36;100657.69;5057937;28;19916;-76
2022/04/14 10:12:20;;;;;;;22.77;11.63;;;;;;;16.89;65.09;100657.06;5075875;28;20040;-76
2022/04/14 10:15:04;;;;;;;27.08;12.40;;;;;;;17.18;62.99;100651.69;5075890;28;20045;-76
2022/04/14 10:17:32;;;;;;;20.00;8.93;;;;;;;17.25;60.77;100644.16;5077228;28;20463;-76
2022/04/14 10:19:57;;;;;;;20.65;10.13;;;;;;;17.27;61.58;100644.75;5075653;28;20455;-77
2022/04/14 10:22:23;;;;;;;;;;;;;;;17.33;60.37;100649.22;5077148;28;20040;-76
2022/04/14 10:24:52;;;;;;;15.90;7.93;;;;;;;17.36;59.41;100656.94;5075360;28;19920;-76
2022/04/14 10:27:19;;;;;;;17.10;8.60;;;;;;;17.36;60.54;100659.66;5075854;28;20060;-76
2022/04/14 10:29:46;;;;;;;16.23;8.23;;;;;;;17.10;58.83;100650.16;5075697;28;20032;-76
2022/04/14 10:32:12;;;;;;;16.70;8.13;;;;;;;17.24;60.68;100651.50;5075961;28;20037;-76
2022/04/14 10:34:38;;;;;;;;;;;;;;;17.33;58.71;100654.69;5076233;28;20028;-76
2022/04/14 10:37:07;;;;;;;14.98;7.35;;;;;;;17.17;58.56;100653.56;5075974;28;20343;-76
2022/04/14 10:39:38;;;;;;;11.60;6.18;;;;;;;16.97;56.99;100647.72;5075883;28;20055;-76
2022/04/14 10:42:06;;;;;;;12.32;5.70;;;;;;;16.88;58.42;100638.25;5057616;28;20127;-76
2022/04/14 10:45:17;;;;;;;13.15;6.22;;;;;;;16.99;59.72;100640.97;5075677;28;20071;-76
2022/04/14 10:47:42;;;;;;;16.02;6.70;;;;;;;16.92;60.74;100634.81;5030017;28;20380;-76
2022/04/14 10:50:18;;;;;;;;;;;;;;;16.78;61.10;100635.34;5076123;28;20095;-76
2022/04/14 10:53:09;;;;;;;13.05;7.25;;;;;;;16.62;61.49;100632.28;5075327;28;19995;-76
2022/04/14 10:55:45;;;;;;;15.98;8.15;;;;;;;16.41;62.98;100630.16;5075451;28;20082;-76
2022/04/14 10:58:29;;;;;;;16.77;8.55;;;;;;;16.50;61.32;100630.59;5075386;28;20135;-76
2022/04/14 11:00:56;;;;;;;16.38;7.05;;;;;;;16.68;60.75;100622.34;5075698;28;20028;-78
2022/04/14 11:03:45;;;;;;;11.68;6.43;;;;;;;16.95;59.32;100623.44;5075412;28;20115;-77
2022/04/14 11:06:10;;;;;;;9.02;5.07;;;;;;;17.10;58.32;100622.09;5057708;28;20036;-77
2022/04/14 11:08:45;;;;;;;;;;;;;;;17.27;55.42;100626.50;5075980;28;20375;-77
2022/04/14 11:11:12;;;;;;;8.50;4.28;;;;;;;17.42;55.57;100627.84;5076505;28;19958;-76
2022/04/14 11:13:55;;;;;;;8.23;4.25;;;;;;;17.49;55.11;100625.81;5057572;28;20033;-76
2022/04/14 11:16:40;;;;;;;9.00;4.28;;;;;;;17.68;55.85;100621.84;5075502;28;20498;-78
2022/04/14 11:19:24;;;;;;;10.20;5.20;;;;;;;17.67;54.33;100631.91;5075755;28;20055;-77